sensor_id;sensor_type;location;lat;lon;timestamp;pressure;altitude;pressure_sealevel;temperature;humidity
706;BME280;21234;48.690;9.016;2023-05-16T00:01:51;95809.00;;;11.92;100.00
706;BME280;21234;48.690;9.016;2023-05-16T00:04:18;95806.81;;;11.89;100.00
706;BME280;21234;48.690;9.016;2023-05-16T00:06:45;95806.25;;;11.82;100.00
706;BME280;21234;48.690;9.016;2023-05-16T00:09:12;95812.19;;;11.74;100.00
706;BME280;21234;48.690;9.016;2023-05-16T00:11:40;95804.56;;;11.76;100.00
706;BME280;21234;48.690;9.016;2023-05-16T00:14:07;95806.22;;;11.77;100.00
706;BME280;21234;48.690;9.016;2023-05-16T00:16:35;95807.28;;;11.71;100.00
706;BME280;21234;48.690;9.016;2023-05-16T00:19:02;95804.03;;;11.69;100.00
706;BME280;21234;48.690;9.016;2023-05-16T00:21:28;95806.19;;;11.67;100.00
706;BME280;21234;48.690;9.016;2023-05-16T00:23:55;95797.75;;;11.63;100.00
706;BME280;21234;48.690;9.016;2023-05-16T00:26:22;95796.09;;;11.57;100.00
706;BME280;21234;48.690;9.016;2023-05-16T00:28:50;95800.16;;;11.55;100.00
706;BME280;21234;48.690;9.016;2023-05-16T00:31:17;95801.78;;;11.56;100.00
706;BME280;21234;48.690;9.016;2023-05-16T00:33:43;95804.22;;;11.52;100.00
706;BME280;21234;48.690;9.016;2023-05-16T00:36:10;95804.22;;;11.52;100.00
706;BME280;21234;48.690;9.016;2023-05-16T00:38:37;95800.41;;;11.48;100.00
706;BME280;21234;48.690;9.016;2023-05-16T00:41:04;95802.31;;;11.48;100.00
706;BME280;21234;48.690;9.016;2023-05-16T00:43:30;95796.03;;;11.47;100.00
706;BME280;21234;48.690;9.016;2023-05-16T00:45:58;95797.94;;;11.41;100.00
706;BME280;21234;48.690;9.016;2023-05-16T00:48:25;95787.59;;;11.43;100.00
706;BME280;21234;48.690;9.016;2023-05-16T00:50:52;95798.44;;;11.38;100.00
706;BME280;21234;48.690;9.016;2023-05-16T00:53:19;95787.06;;;11.36;100.00
706;BME280;21234;48.690;9.016;2023-05-16T00:55:46;95797.13;;;11.36;100.00
706;BME280;21234;48.690;9.016;2023-05-16T00:58:13;95796.81;;;11.32;100.00
706;BME280;21234;48.690;9.016;2023-05-16T01:00:40;95793.81;;;11.29;100.00
706;BME280;21234;48.690;9.016;2023-05-16T01:03:08;95788.66;;;11.32;100.00
706;BME280;21234;48.690;9.016;2023-05-16T01:05:35;95792.16;;;11.23;100.00
706;BME280;21234;48.690;9.016;2023-05-16T01:08:02;95800.91;;;11.30;100.00
706;BME280;21234;48.690;9.016;2023-05-16T01:10:35;95800.91;;;11.30;100.00
706;BME280;21234;48.690;9.016;2023-05-16T01:13:08;95795.94;;;11.22;100.00
706;BME280;21234;48.690;9.016;2023-05-16T01:15:42;95795.66;;;11.18;100.00
706;BME280;21234;48.690;9.016;2023-05-16T01:18:17;95803.53;;;11.15;100.00
706;BME280;21234;48.690;9.016;2023-05-16T01:20:52;95798.31;;;11.08;100.00
706;BME280;21234;48.690;9.016;2023-05-16T01:23:39;95801.03;;;11.03;100.00
706;BME280;21234;48.690;9.016;2023-05-16T01:26:14;95799.41;;;11.02;100.00
706;BME280;21234;48.690;9.016;2023-05-16T01:28:43;95800.19;;;10.97;100.00
706;BME280;21234;48.690;9.016;2023-05-16T01:31:10;95804.56;;;10.98;100.00
706;BME280;21234;48.690;9.016;2023-05-16T01:33:37;95803.44;;;10.94;100.00
706;BME280;21234;48.690;9.016;2023-05-16T01:36:10;95805.88;;;10.91;100.00
706;BME280;21234;48.690;9.016;2023-05-16T01:38:47;95805.59;;;10.92;100.00
706;BME280;21234;48.690;9.016;2023-05-16T01:41:24;95804.19;;;10.85;100.00
706;BME280;21234;48.690;9.016;2023-05-16T01:43:58;95797.16;;;10.89;100.00
706;BME280;21234;48.690;9.016;2023-05-16T01:46:26;95794.63;;;10.77;100.00
706;BME280;21234;48.690;9.016;2023-05-16T01:49:00;95799.88;;;10.89;100.00
706;BME280;21234;48.690;9.016;2023-05-16T01:51:32;95799.31;;;10.87;100.00
706;BME280;21234;48.690;9.016;2023-05-16T01:54:04;95799.28;;;10.82;100.00
706;BME280;21234;48.690;9.016;2023-05-16T01:56:33;95803.63;;;10.83;100.00
706;BME280;21234;48.690;9.016;2023-05-16T01:59:03;95808.59;;;10.91;100.00
706;BME280;21234;48.690;9.016;2023-05-16T02:01:30;95806.88;;;10.80;100.00
706;BME280;21234;48.690;9.016;2023-05-16T02:03:57;95808.22;;;10.77;100.00
706;BME280;21234;48.690;9.016;2023-05-16T02:06:24;95804.34;;;10.63;100.00
706;BME280;21234;48.690;9.016;2023-05-16T02:08:51;95812.44;;;10.58;100.00
706;BME280;21234;48.690;9.016;2023-05-16T02:11:18;95812.97;;;10.55;100.00
706;BME280;21234;48.690;9.016;2023-05-16T02:13:46;95811.03;;;10.50;100.00
706;BME280;21234;48.690;9.016;2023-05-16T02:16:12;95801.53;;;10.53;100.00
706;BME280;21234;48.690;9.016;2023-05-16T02:18:39;95812.75;;;10.61;100.00
706;BME280;21234;48.690;9.016;2023-05-16T02:21:06;95811.84;;;10.51;100.00
706;BME280;21234;48.690;9.016;2023-05-16T02:23:33;95814.00;;;10.49;100.00
706;BME280;21234;48.690;9.016;2023-05-16T02:26:00;95807.19;;;10.46;100.00
706;BME280;21234;48.690;9.016;2023-05-16T02:28:26;95815.91;;;10.48;100.00
706;BME280;21234;48.690;9.016;2023-05-16T02:30:58;95815.38;;;10.51;100.00
706;BME280;21234;48.690;9.016;2023-05-16T02:33:25;95818.94;;;10.52;100.00
706;BME280;21234;48.690;9.016;2023-05-16T02:35:52;95815.13;;;10.53;100.00
706;BME280;21234;48.690;9.016;2023-05-16T02:38:19;95813.19;;;10.48;100.00
706;BME280;21234;48.690;9.016;2023-05-16T02:40:46;95816.50;;;10.55;100.00
706;BME280;21234;48.690;9.016;2023-05-16T02:43:13;95814.00;;;10.49;100.00
706;BME280;21234;48.690;9.016;2023-05-16T02:45:39;95808.00;;;10.47;100.00
706;BME280;21234;48.690;9.016;2023-05-16T02:48:07;95803.59;;;10.35;100.00
706;BME280;21234;48.690;9.016;2023-05-16T02:50:34;95806.28;;;10.30;100.00
706;BME280;21234;48.690;9.016;2023-05-16T02:53:01;95806.84;;;10.32;100.00
706;BME280;21234;48.690;9.016;2023-05-16T02:55:28;95802.69;;;10.25;100.00
706;BME280;21234;48.690;9.016;2023-05-16T02:57:55;95805.16;;;10.26;100.00
706;BME280;21234;48.690;9.016;2023-05-16T03:00:22;95807.69;;;10.38;100.00
706;BME280;21234;48.690;9.016;2023-05-16T03:02:49;95813.34;;;10.31;100.00
706;BME280;21234;48.690;9.016;2023-05-16T03:05:17;95809.19;;;10.24;100.00
706;BME280;21234;48.690;9.016;2023-05-16T03:07:44;95809.72;;;10.21;100.00
706;BME280;21234;48.690;9.016;2023-05-16T03:10:11;95809.38;;;10.17;100.00
706;BME280;21234;48.690;9.016;2023-05-16T03:12:37;95804.78;;;10.18;100.00
706;BME280;21234;48.690;9.016;2023-05-16T03:15:05;95812.75;;;10.24;100.00
706;BME280;21234;48.690;9.016;2023-05-16T03:17:33;95807.03;;;10.26;100.00
706;BME280;21234;48.690;9.016;2023-05-16T03:20:00;95811.50;;;10.37;100.00
706;BME280;21234;48.690;9.016;2023-05-16T03:22:29;95804.59;;;10.24;100.00
706;BME280;21234;48.690;9.016;2023-05-16T03:24:56;95810.31;;;10.28;100.00
706;BME280;21234;48.690;9.016;2023-05-16T03:27:22;95816.53;;;10.23;100.00
706;BME280;21234;48.690;9.016;2023-05-16T03:29:49;95815.44;;;10.24;100.00
706;BME280;21234;48.690;9.016;2023-05-16T03:32:15;95817.59;;;10.22;100.00
706;BME280;21234;48.690;9.016;2023-05-16T03:34:42;95819.41;;;10.17;100.00
706;BME280;21234;48.690;9.016;2023-05-16T03:37:09;95815.72;;;10.23;100.00
706;BME280;21234;48.690;9.016;2023-05-16T03:39:40;95817.28;;;10.19;100.00
706;BME280;21234;48.690;9.016;2023-05-16T03:42:07;95811.63;;;10.20;100.00
706;BME280;21234;48.690;9.016;2023-05-16T03:44:34;95813.50;;;10.20;100.00
706;BME280;21234;48.690;9.016;2023-05-16T03:47:00;95816.22;;;10.20;100.00
706;BME280;21234;48.690;9.016;2023-05-16T03:49:27;95809.97;;;10.19;100.00
706;BME280;21234;48.690;9.016;2023-05-16T03:51:54;95813.00;;;10.23;100.00
706;BME280;21234;48.690;9.016;2023-05-16T03:54:21;95809.97;;;10.19;100.00
706;BME280;21234;48.690;9.016;2023-05-16T03:56:49;95808.91;;;10.20;100.00
706;BME280;21234;48.690;9.016;2023-05-16T03:59:24;95811.84;;;10.19;100.00
706;BME280;21234;48.690;9.016;2023-05-16T04:01:56;95810.59;;;10.26;100.00
706;BME280;21234;48.690;9.016;2023-05-16T04:04:23;95815.19;;;10.26;100.00
706;BME280;21234;48.690;9.016;2023-05-16T04:06:50;95811.97;;;10.29;100.00
706;BME280;21234;48.690;9.016;2023-05-16T04:09:17;95820.69;;;10.31;100.00
706;BME280;21234;48.690;9.016;2023-05-16T04:11:43;95817.50;;;10.39;100.00
706;BME280;21234;48.690;9.016;2023-05-16T04:14:12;95823.19;;;10.37;100.00
706;BME280;21234;48.690;9.016;2023-05-16T04:16:39;95823.44;;;10.36;100.00
706;BME280;21234;48.690;9.016;2023-05-16T04:19:06;95828.34;;;10.39;100.00
706;BME280;21234;48.690;9.016;2023-05-16T04:21:33;95827.56;;;10.43;100.00
706;BME280;21234;48.690;9.016;2023-05-16T04:24:00;95829.13;;;10.34;100.00
706;BME280;21234;48.690;9.016;2023-05-16T04:26:27;95829.97;;;10.40;100.00
706;BME280;21234;48.690;9.016;2023-05-16T04:28:54;95837.28;;;10.34;100.00
706;BME280;21234;48.690;9.016;2023-05-16T04:31:23;95832.09;;;10.33;100.00
706;BME280;21234;48.690;9.016;2023-05-16T04:33:50;95831.84;;;10.34;100.00
706;BME280;21234;48.690;9.016;2023-05-16T04:36:18;95835.59;;;10.28;100.00
706;BME280;21234;48.690;9.016;2023-05-16T04:38:45;95834.81;;;10.33;100.00
706;BME280;21234;48.690;9.016;2023-05-16T04:41:12;95828.31;;;10.34;100.00
706;BME280;21234;48.690;9.016;2023-05-16T04:43:39;95830.97;;;10.29;100.00
706;BME280;21234;48.690;9.016;2023-05-16T04:46:06;95838.34;;;10.33;100.00
706;BME280;21234;48.690;9.016;2023-05-16T04:48:34;95833.44;;;10.30;100.00
706;BME280;21234;48.690;9.016;2023-05-16T04:51:02;95846.81;;;10.37;100.00
706;BME280;21234;48.690;9.016;2023-05-16T04:53:29;95843.56;;;10.40;100.00
706;BME280;21234;48.690;9.016;2023-05-16T04:55:56;95849.53;;;10.42;100.00
706;BME280;21234;48.690;9.016;2023-05-16T04:58:23;95845.75;;;10.43;100.00
706;BME280;21234;48.690;9.016;2023-05-16T05:00:50;95857.19;;;10.45;100.00
706;BME280;21234;48.690;9.016;2023-05-16T05:03:16;95846.84;;;10.42;100.00
706;BME280;21234;48.690;9.016;2023-05-16T05:05:45;95857.97;;;10.40;100.00
706;BME280;21234;48.690;9.016;2023-05-16T05:08:12;95851.44;;;10.36;100.00
706;BME280;21234;48.690;9.016;2023-05-16T05:10:39;95856.06;;;10.41;100.00
706;BME280;21234;48.690;9.016;2023-05-16T05:13:05;95864.56;;;10.50;100.00
706;BME280;21234;48.690;9.016;2023-05-16T05:15:32;95864.88;;;10.53;100.00
706;BME280;21234;48.690;9.016;2023-05-16T05:17:59;95868.63;;;10.47;100.00
706;BME280;21234;48.690;9.016;2023-05-16T05:20:25;95866.19;;;10.51;100.00
706;BME280;21234;48.690;9.016;2023-05-16T05:22:54;95863.22;;;10.52;100.00
706;BME280;21234;48.690;9.016;2023-05-16T05:25:20;95861.06;;;10.54;100.00
706;BME280;21234;48.690;9.016;2023-05-16T05:27:47;95859.13;;;10.50;100.00
706;BME280;21234;48.690;9.016;2023-05-16T05:30:14;95862.16;;;10.53;100.00
706;BME280;21234;48.690;9.016;2023-05-16T05:32:40;95862.94;;;10.49;100.00
706;BME280;21234;48.690;9.016;2023-05-16T05:35:07;95864.31;;;10.51;100.00
706;BME280;21234;48.690;9.016;2023-05-16T05:37:34;95861.28;;;10.48;100.00
706;BME280;21234;48.690;9.016;2023-05-16T05:40:03;95863.19;;;10.47;100.00
706;BME280;21234;48.690;9.016;2023-05-16T05:42:31;95859.91;;;10.45;100.00
706;BME280;21234;48.690;9.016;2023-05-16T05:44:58;95857.22;;;10.50;100.00
706;BME280;21234;48.690;9.016;2023-05-16T05:47:24;95852.88;;;10.49;100.00
706;BME280;21234;48.690;9.016;2023-05-16T05:49:51;95862.38;;;10.47;100.00
706;BME280;21234;48.690;9.016;2023-05-16T05:52:18;95861.81;;;10.44;100.00
706;BME280;21234;48.690;9.016;2023-05-16T05:54:45;95861.78;;;10.39;100.00
706;BME280;21234;48.690;9.016;2023-05-16T05:57:14;95870.22;;;10.43;100.00
706;BME280;21234;48.690;9.016;2023-05-16T05:59:40;95871.28;;;10.42;100.00
706;BME280;21234;48.690;9.016;2023-05-16T06:02:07;95873.50;;;10.45;100.00
706;BME280;21234;48.690;9.016;2023-05-16T06:04:34;95877.34;;;10.49;100.00
706;BME280;21234;48.690;9.016;2023-05-16T06:07:00;95874.88;;;10.48;100.00
706;BME280;21234;48.690;9.016;2023-05-16T06:09:27;95862.94;;;10.49;100.00
706;BME280;21234;48.690;9.016;2023-05-16T06:11:54;95879.59;;;10.57;100.00
706;BME280;21234;48.690;9.016;2023-05-16T06:14:22;95880.09;;;10.54;100.00
706;BME280;21234;48.690;9.016;2023-05-16T06:16:48;95883.06;;;10.53;100.00
706;BME280;21234;48.690;9.016;2023-05-16T06:19:15;95887.44;;;10.54;100.00
706;BME280;21234;48.690;9.016;2023-05-16T06:21:42;95890.44;;;10.57;100.00
706;BME280;21234;48.690;9.016;2023-05-16T06:24:09;95886.91;;;10.57;100.00
706;BME280;21234;48.690;9.016;2023-05-16T06:26:36;95889.69;;;10.62;100.00
706;BME280;21234;48.690;9.016;2023-05-16T06:29:03;95891.31;;;10.63;100.00
706;BME280;21234;48.690;9.016;2023-05-16T06:31:31;95886.19;;;10.66;100.00
706;BME280;21234;48.690;9.016;2023-05-16T06:33:57;95882.94;;;10.69;100.00
706;BME280;21234;48.690;9.016;2023-05-16T06:36:24;95895.78;;;10.79;100.00
706;BME280;21234;48.690;9.016;2023-05-16T06:38:51;95896.66;;;10.85;100.00
706;BME280;21234;48.690;9.016;2023-05-16T06:41:17;95895.59;;;10.91;100.00
706;BME280;21234;48.690;9.016;2023-05-16T06:43:44;95904.53;;;10.86;100.00
706;BME280;21234;48.690;9.016;2023-05-16T06:46:11;95900.69;;;10.82;100.00
706;BME280;21234;48.690;9.016;2023-05-16T06:48:39;95901.22;;;10.79;100.00
706;BME280;21234;48.690;9.016;2023-05-16T06:51:05;95908.84;;;10.82;100.00
706;BME280;21234;48.690;9.016;2023-05-16T06:53:32;95904.16;;;10.72;100.00
706;BME280;21234;48.690;9.016;2023-05-16T06:55:58;95911.22;;;10.73;100.00
706;BME280;21234;48.690;9.016;2023-05-16T06:58:25;95902.81;;;10.70;100.00
706;BME280;21234;48.690;9.016;2023-05-16T07:00:52;95900.91;;;10.70;100.00
706;BME280;21234;48.690;9.016;2023-05-16T07:03:18;95902.44;;;10.61;100.00
706;BME280;21234;48.690;9.016;2023-05-16T07:05:47;95911.16;;;10.63;100.00
706;BME280;21234;48.690;9.016;2023-05-16T07:08:15;95909.84;;;10.66;100.00
706;BME280;21234;48.690;9.016;2023-05-16T07:10:42;95906.84;;;10.67;100.00
706;BME280;21234;48.690;9.016;2023-05-16T07:13:10;95910.00;;;10.54;100.00
706;BME280;21234;48.690;9.016;2023-05-16T07:15:37;95909.44;;;10.52;100.00
706;BME280;21234;48.690;9.016;2023-05-16T07:18:03;95916.97;;;10.45;100.00
706;BME280;21234;48.690;9.016;2023-05-16T07:20:30;95922.34;;;10.40;100.00
706;BME280;21234;48.690;9.016;2023-05-16T07:22:58;95919.38;;;10.41;100.00
706;BME280;21234;48.690;9.016;2023-05-16T07:25:25;95922.06;;;10.36;100.00
706;BME280;21234;48.690;9.016;2023-05-16T07:27:53;95922.34;;;10.40;100.00
706;BME280;21234;48.690;9.016;2023-05-16T07:30:19;95922.09;;;10.41;100.00
706;BME280;21234;48.690;9.016;2023-05-16T07:32:46;95922.91;;;10.37;100.00
706;BME280;21234;48.690;9.016;2023-05-16T07:35:13;95931.03;;;10.37;100.00
706;BME280;21234;48.690;9.016;2023-05-16T07:37:40;95931.00;;;10.32;100.00
706;BME280;21234;48.690;9.016;2023-05-16T07:40:10;95932.84;;;10.26;100.00
706;BME280;21234;48.690;9.016;2023-05-16T07:42:36;95932.63;;;10.33;100.00
706;BME280;21234;48.690;9.016;2023-05-16T07:45:04;95936.34;;;10.54;100.00
706;BME280;21234;48.690;9.016;2023-05-16T07:47:31;95925.63;;;10.69;100.00
706;BME280;21234;48.690;9.016;2023-05-16T07:49:58;95932.72;;;10.70;100.00
706;BME280;21234;48.690;9.016;2023-05-16T07:52:24;95934.66;;;10.80;100.00
706;BME280;21234;48.690;9.016;2023-05-16T07:54:52;95934.34;;;10.71;100.00
706;BME280;21234;48.690;9.016;2023-05-16T07:57:20;95943.47;;;10.60;100.00
706;BME280;21234;48.690;9.016;2023-05-16T07:59:46;95940.34;;;10.46;100.00
706;BME280;21234;48.690;9.016;2023-05-16T08:02:13;95939.47;;;10.40;100.00
706;BME280;21234;48.690;9.016;2023-05-16T08:04:41;95939.19;;;10.37;100.00
706;BME280;21234;48.690;9.016;2023-05-16T08:07:08;95939.22;;;10.42;100.00
706;BME280;21234;48.690;9.016;2023-05-16T08:09:35;95942.03;;;10.52;100.00
706;BME280;21234;48.690;9.016;2023-05-16T08:12:01;95944.91;;;10.67;100.00
706;BME280;21234;48.690;9.016;2023-05-16T08:14:30;95941.69;;;10.70;100.00
706;BME280;21234;48.690;9.016;2023-05-16T08:16:57;95944.34;;;10.65;100.00
706;BME280;21234;48.690;9.016;2023-05-16T08:19:24;95937.31;;;10.69;100.00
706;BME280;21234;48.690;9.016;2023-05-16T08:21:51;95949.03;;;10.70;100.00
706;BME280;21234;48.690;9.016;2023-05-16T08:24:17;95951.63;;;10.60;100.00
706;BME280;21234;48.690;9.016;2023-05-16T08:26:44;95955.06;;;10.50;100.00
706;BME280;21234;48.690;9.016;2023-05-16T08:29:11;95958.56;;;10.46;100.00
706;BME280;21234;48.690;9.016;2023-05-16T08:31:39;95958.00;;;10.43;100.00
706;BME280;21234;48.690;9.016;2023-05-16T08:34:05;95952.22;;;10.35;100.00
706;BME280;21234;48.690;9.016;2023-05-16T08:36:33;95961.44;;;10.34;100.00
706;BME280;21234;48.690;9.016;2023-05-16T08:39:00;95954.69;;;10.36;100.00
706;BME280;21234;48.690;9.016;2023-05-16T08:41:27;95955.19;;;10.33;100.00
706;BME280;21234;48.690;9.016;2023-05-16T08:43:53;95964.41;;;10.32;100.00
706;BME280;21234;48.690;9.016;2023-05-16T08:46:21;95959.81;;;10.33;100.00
706;BME280;21234;48.690;9.016;2023-05-16T08:48:51;95961.69;;;10.32;100.00
706;BME280;21234;48.690;9.016;2023-05-16T08:51:19;95961.19;;;10.35;100.00
706;BME280;21234;48.690;9.016;2023-05-16T08:53:55;95970.50;;;10.44;100.00
706;BME280;21234;48.690;9.016;2023-05-16T08:56:23;95965.81;;;10.40;100.00
706;BME280;21234;48.690;9.016;2023-05-16T08:58:50;95966.44;;;10.47;100.00
706;BME280;21234;48.690;9.016;2023-05-16T09:01:20;95970.25;;;10.46;100.00
706;BME280;21234;48.690;9.016;2023-05-16T09:03:49;95978.91;;;10.43;100.00
706;BME280;21234;48.690;9.016;2023-05-16T09:06:17;95971.56;;;10.38;100.00
706;BME280;21234;48.690;9.016;2023-05-16T09:08:44;95981.28;;;10.34;100.00
706;BME280;21234;48.690;9.016;2023-05-16T09:11:11;95977.69;;;10.29;100.00
706;BME280;21234;48.690;9.016;2023-05-16T09:13:38;95983.19;;;10.34;100.00
706;BME280;21234;48.690;9.016;2023-05-16T09:16:09;95979.13;;;10.36;100.00
706;BME280;21234;48.690;9.016;2023-05-16T09:18:36;95982.09;;;10.35;100.00
706;BME280;21234;48.690;9.016;2023-05-16T09:21:05;95977.31;;;10.47;100.00
706;BME280;21234;48.690;9.016;2023-05-16T09:23:33;95971.38;;;10.50;100.00
706;BME280;21234;48.690;9.016;2023-05-16T09:26:00;95970.31;;;10.51;100.00
706;BME280;21234;48.690;9.016;2023-05-16T09:28:27;95974.41;;;10.54;100.00
706;BME280;21234;48.690;9.016;2023-05-16T09:30:53;95981.38;;;10.71;100.00
706;BME280;21234;48.690;9.016;2023-05-16T09:33:25;95975.97;;;10.76;100.00
706;BME280;21234;48.690;9.016;2023-05-16T09:35:56;95985.72;;;10.72;100.00
706;BME280;21234;48.690;9.016;2023-05-16T09:38:26;95987.91;;;10.70;100.00
706;BME280;21234;48.690;9.016;2023-05-16T09:40:54;95982.00;;;10.84;100.00
706;BME280;21234;48.690;9.016;2023-05-16T09:43:23;95986.16;;;10.91;100.00
706;BME280;21234;48.690;9.016;2023-05-16T09:45:50;95975.66;;;11.00;100.00
706;BME280;21234;48.690;9.016;2023-05-16T09:48:17;95982.22;;;11.04;100.00
706;BME280;21234;48.690;9.016;2023-05-16T09:50:49;95979.69;;;10.97;100.00
706;BME280;21234;48.690;9.016;2023-05-16T09:53:17;95970.47;;;10.98;100.00
706;BME280;21234;48.690;9.016;2023-05-16T09:55:45;95968.03;;;11.02;100.00
706;BME280;21234;48.690;9.016;2023-05-16T09:58:15;95976.78;;;11.09;100.00
706;BME280;21234;48.690;9.016;2023-05-16T10:00:42;95977.09;;;11.13;100.00
706;BME280;21234;48.690;9.016;2023-05-16T10:03:10;95964.09;;;11.20;100.00
706;BME280;21234;48.690;9.016;2023-05-16T10:05:37;95966.06;;;11.29;100.00
706;BME280;21234;48.690;9.016;2023-05-16T10:08:04;95954.66;;;11.37;100.00
706;BME280;21234;48.690;9.016;2023-05-16T10:10:35;95963.41;;;11.44;100.00
706;BME280;21234;48.690;9.016;2023-05-16T10:13:04;95966.91;;;11.35;100.00
706;BME280;21234;48.690;9.016;2023-05-16T10:15:33;95962.78;;;11.27;100.00
706;BME280;21234;48.690;9.016;2023-05-16T10:18:02;95964.69;;;11.27;100.00
706;BME280;21234;48.690;9.016;2023-05-16T10:20:32;95963.13;;;11.36;100.00
706;BME280;21234;48.690;9.016;2023-05-16T10:22:59;95963.94;;;11.41;100.00
706;BME280;21234;48.690;9.016;2023-05-16T10:25:28;95960.09;;;11.32;100.00
706;BME280;21234;48.690;9.016;2023-05-16T10:27:58;95961.66;;;11.23;100.00
706;BME280;21234;48.690;9.016;2023-05-16T10:30:26;95961.06;;;11.16;100.00
706;BME280;21234;48.690;9.016;2023-05-16T10:32:54;95962.34;;;11.03;100.00
706;BME280;21234;48.690;9.016;2023-05-16T10:35:22;95973.69;;;10.95;100.00
706;BME280;21234;48.690;9.016;2023-05-16T10:37:51;95975.34;;;10.96;100.00
706;BME280;21234;48.690;9.016;2023-05-16T10:40:18;95967.94;;;10.92;100.00
706;BME280;21234;48.690;9.016;2023-05-16T10:42:54;95976.31;;;10.85;100.00
706;BME280;21234;48.690;9.016;2023-05-16T10:45:22;95967.66;;;10.88;100.00
706;BME280;21234;48.690;9.016;2023-05-16T10:47:52;95971.97;;;10.84;100.00
706;BME280;21234;48.690;9.016;2023-05-16T10:50:37;95966.25;;;10.86;100.00
706;BME280;21234;48.690;9.016;2023-05-16T10:53:14;95962.56;;;10.97;100.00
706;BME280;21234;48.690;9.016;2023-05-16T10:55:48;95976.47;;;11.00;100.00
706;BME280;21234;48.690;9.016;2023-05-16T10:58:21;95970.22;;;11.05;100.00
706;BME280;21234;48.690;9.016;2023-05-16T11:00:49;95970.22;;;11.05;100.00
706;BME280;21234;48.690;9.016;2023-05-16T11:03:37;95972.16;;;11.04;100.00
706;BME280;21234;48.690;9.016;2023-05-16T11:06:04;95967.50;;;11.05;100.00
706;BME280;21234;48.690;9.016;2023-05-16T11:08:33;95969.38;;;10.99;100.00
706;BME280;21234;48.690;9.016;2023-05-16T11:14:02;95981.66;;;11.02;100.00
706;BME280;21234;48.690;9.016;2023-05-16T11:16:29;95979.47;;;11.04;100.00
706;BME280;21234;48.690;9.016;2023-05-16T11:19:03;95981.91;;;11.00;100.00
706;BME280;21234;48.690;9.016;2023-05-16T11:22:04;95989.91;;;10.85;100.00
706;BME280;21234;48.690;9.016;2023-05-16T11:24:30;95995.91;;;10.87;100.00
706;BME280;21234;48.690;9.016;2023-05-16T11:27:04;95990.06;;;10.73;100.00
706;BME280;21234;48.690;9.016;2023-05-16T11:29:32;96001.63;;;10.59;100.00
706;BME280;21234;48.690;9.016;2023-05-16T11:32:00;96003.41;;;10.48;100.00
706;BME280;21234;48.690;9.016;2023-05-16T11:34:29;96004.50;;;10.47;100.00
706;BME280;21234;48.690;9.016;2023-05-16T11:36:57;96005.38;;;10.53;100.00
706;BME280;21234;48.690;9.016;2023-05-16T11:39:24;96007.28;;;10.52;100.00
706;BME280;21234;48.690;9.016;2023-05-16T11:41:52;96005.56;;;10.46;100.00
706;BME280;21234;48.690;9.016;2023-05-16T11:44:19;96015.84;;;10.39;100.00
706;BME280;21234;48.690;9.016;2023-05-16T11:46:45;96009.88;;;10.42;100.00
706;BME280;21234;48.690;9.016;2023-05-16T11:49:12;96017.22;;;10.41;100.00
706;BME280;21234;48.690;9.016;2023-05-16T11:51:41;96017.47;;;10.40;100.00
706;BME280;21234;48.690;9.016;2023-05-16T11:54:08;96011.75;;;10.36;100.00
706;BME280;21234;48.690;9.016;2023-05-16T11:56:36;96017.94;;;10.32;100.00
706;BME280;21234;48.690;9.016;2023-05-16T11:59:03;96023.94;;;10.34;100.00
706;BME280;21234;48.690;9.016;2023-05-16T12:01:33;96023.63;;;10.30;100.00
706;BME280;21234;48.690;9.016;2023-05-16T12:04:01;96017.69;;;10.33;100.00
706;BME280;21234;48.690;9.016;2023-05-16T12:06:28;96024.50;;;10.36;100.00
706;BME280;21234;48.690;9.016;2023-05-16T12:08:57;96027.56;;;10.44;100.00
706;BME280;21234;48.690;9.016;2023-05-16T12:11:24;96026.63;;;10.56;100.00
706;BME280;21234;48.690;9.016;2023-05-16T12:13:51;96029.91;;;10.58;100.00
706;BME280;21234;48.690;9.016;2023-05-16T12:16:18;96027.50;;;10.61;100.00
706;BME280;21234;48.690;9.016;2023-05-16T12:18:46;96029.31;;;10.56;100.00
706;BME280;21234;48.690;9.016;2023-05-16T12:21:14;96033.50;;;10.63;100.00
706;BME280;21234;48.690;9.016;2023-05-16T12:23:41;96032.16;;;10.66;100.00
706;BME280;21234;48.690;9.016;2023-05-16T12:26:10;96039.88;;;10.79;100.00
706;BME280;21234;48.690;9.016;2023-05-16T12:28:36;96036.47;;;10.89;100.00
706;BME280;21234;48.690;9.016;2023-05-16T12:31:10;96035.47;;;11.00;100.00
706;BME280;21234;48.690;9.016;2023-05-16T12:33:38;96035.47;;;11.00;100.00
706;BME280;21234;48.690;9.016;2023-05-16T12:36:12;96034.66;;;10.99;100.00
706;BME280;21234;48.690;9.016;2023-05-16T12:38:39;96037.31;;;10.94;100.00
706;BME280;21234;48.690;9.016;2023-05-16T12:41:06;96029.13;;;10.89;100.00
706;BME280;21234;48.690;9.016;2023-05-16T12:43:34;96033.31;;;10.75;100.00
706;BME280;21234;48.690;9.016;2023-05-16T12:46:01;96043.84;;;10.66;100.00
706;BME280;21234;48.690;9.016;2023-05-16T12:48:31;96039.69;;;10.59;100.00
706;BME280;21234;48.690;9.016;2023-05-16T12:51:09;96049.38;;;10.50;100.00
706;BME280;21234;48.690;9.016;2023-05-16T12:53:40;96046.66;;;10.50;100.00
706;BME280;21234;48.690;9.016;2023-05-16T12:56:07;96052.09;;;10.50;100.00
706;BME280;21234;48.690;9.016;2023-05-16T12:58:35;96063.22;;;10.26;100.00
706;BME280;21234;48.690;9.016;2023-05-16T13:01:01;96056.81;;;10.16;100.00
706;BME280;21234;48.690;9.016;2023-05-16T13:03:29;96055.88;;;10.05;100.00
706;BME280;21234;48.690;9.016;2023-05-16T13:05:56;96054.66;;;9.96;100.00
706;BME280;21234;48.690;9.016;2023-05-16T13:08:24;96062.59;;;9.81;100.00
706;BME280;21234;48.690;9.016;2023-05-16T13:10:50;96064.16;;;9.76;100.00
706;BME280;21234;48.690;9.016;2023-05-16T13:13:17;96065.19;;;9.70;100.00
706;BME280;21234;48.690;9.016;2023-05-16T13:15:45;96064.28;;;9.65;100.00
706;BME280;21234;48.690;9.016;2023-05-16T13:18:12;96070.53;;;9.65;100.00